createdAt,value
2023-02-14T00:01:31.528Z,102287.46
2023-02-14T00:04:00.926Z,102289.19
2023-02-14T00:06:35.020Z,102285.39
2023-02-14T00:09:03.396Z,102280.38
2023-02-14T00:11:31.894Z,102288.27
2023-02-14T00:14:18.362Z,102293.22
2023-02-14T00:16:46.252Z,102293.49
2023-02-14T00:19:16.270Z,102298.02
2023-02-14T00:21:44.808Z,102305.46
2023-02-14T00:24:14.962Z,102304.27
2023-02-14T00:26:42.826Z,102301.85
2023-02-14T00:29:15.170Z,102305.48
2023-02-14T00:31:44.925Z,102306.01
2023-02-14T00:34:14.474Z,102305.50
2023-02-14T00:36:43.108Z,102302.36
2023-02-14T00:39:14.563Z,102307.86
2023-02-14T00:41:43.096Z,102307.81
2023-02-14T00:44:13.305Z,102307.45
2023-02-14T00:46:41.672Z,102307.75
2023-02-14T00:49:09.871Z,102307.55
2023-02-14T00:51:40.721Z,102308.91
2023-02-14T00:54:08.536Z,102311.02
2023-02-14T00:56:36.226Z,102310.70
2023-02-14T00:59:03.945Z,102317.51
2023-02-14T01:01:31.799Z,102320.66
2023-02-14T01:03:59.556Z,102316.02
2023-02-14T01:06:27.385Z,102314.33
2023-02-14T01:08:57.680Z,102311.90
2023-02-14T01:11:25.827Z,102307.94
2023-02-14T01:13:56.765Z,102303.27
2023-02-14T01:16:27.019Z,102300.70
2023-02-14T01:18:59.797Z,102299.84
2023-02-14T01:21:31.710Z,102300.15
2023-02-14T01:24:05.702Z,102296.98
2023-02-14T01:26:35.014Z,102301.10
2023-02-14T01:29:04.508Z,102302.98
2023-02-14T01:31:35.126Z,102301.27
2023-02-14T01:34:04.112Z,102297.46
2023-02-14T01:36:37.115Z,102300.73
2023-02-14T01:39:12.920Z,102299.81
2023-02-14T01:41:44.071Z,102296.88
2023-02-14T01:44:14.949Z,102295.12
2023-02-14T01:46:45.036Z,102295.77
2023-02-14T01:49:34.932Z,102296.77
2023-02-14T01:52:27.327Z,102292.94
2023-02-14T01:55:00.277Z,102294.67
2023-02-14T01:57:43.242Z,102292.81
2023-02-14T02:00:32.618Z,102287.80
2023-02-14T02:03:01.869Z,102286.98
2023-02-14T02:05:29.882Z,102280.83
2023-02-14T02:08:00.133Z,102276.88
2023-02-14T02:10:29.385Z,102275.52
2023-02-14T02:13:03.121Z,102280.02
2023-02-14T02:15:39.468Z,102279.83
2023-02-14T02:18:30.798Z,102280.54
2023-02-14T02:21:43.344Z,102278.42
2023-02-14T02:24:25.879Z,102273.51
2023-02-14T02:27:03.719Z,102277.27
2023-02-14T02:30:15.044Z,102277.29
2023-02-14T02:33:33.167Z,102274.20
2023-02-14T02:36:25.322Z,102270.41
2023-02-14T02:39:41.349Z,102266.80
2023-02-14T02:42:28.448Z,102274.14
2023-02-14T02:45:32.436Z,102277.73
2023-02-14T02:48:32.216Z,102274.93
2023-02-14T02:51:25.247Z,102272.28
2023-02-14T02:54:20.185Z,102270.35
2023-02-14T02:56:58.185Z,102271.89
2023-02-14T02:59:34.260Z,102275.01
2023-02-14T03:03:05.066Z,102281.86
2023-02-14T03:05:34.457Z,102281.77
2023-02-14T03:08:04.669Z,102278.84
2023-02-14T03:10:38.761Z,102275.07
2023-02-14T03:13:33.648Z,102274.91
2023-02-14T03:16:26.683Z,102275.02
2023-02-14T03:19:35.441Z,102273.04
2023-02-14T03:22:15.608Z,102274.91
2023-02-14T03:25:10.908Z,102276.98
2023-02-14T03:27:48.380Z,102278.05
2023-02-14T03:31:10.029Z,102278.77
2023-02-14T03:33:52.628Z,102278.22
2023-02-14T03:36:41.910Z,102283.08
2023-02-14T03:39:26.697Z,102281.20
2023-02-14T03:42:09.285Z,102277.58
2023-02-14T03:44:40.147Z,102273.42
2023-02-14T03:47:16.930Z,102272.70
2023-02-14T03:49:53.121Z,102274.58
2023-02-14T03:52:22.428Z,102277.02
2023-02-14T03:54:54.449Z,102277.55
2023-02-14T03:58:02.353Z,102276.68
2023-02-14T04:00:35.397Z,102276.68
2023-02-14T04:03:13.095Z,102275.52
2023-02-14T04:05:43.328Z,102279.33
2023-02-14T04:08:11.857Z,102279.84
2023-02-14T04:10:41.349Z,102279.52
2023-02-14T04:13:09.258Z,102279.66
2023-02-14T04:15:37.047Z,102278.77
2023-02-14T04:18:23.498Z,102275.98
2023-02-14T04:20:51.267Z,102283.02
2023-02-14T04:23:19.019Z,102285.98
2023-02-14T04:25:47.386Z,102282.73
2023-02-14T04:28:15.248Z,102279.95
2023-02-14T04:30:43.218Z,102276.29
2023-02-14T04:33:10.933Z,102273.35
2023-02-14T04:35:38.716Z,102271.97
2023-02-14T04:38:06.585Z,102272.33
2023-02-14T04:40:34.297Z,102270.77
2023-02-14T04:43:03.926Z,102275.59
2023-02-14T04:45:31.717Z,102279.02
2023-02-14T04:47:59.869Z,102276.60
2023-02-14T04:50:27.576Z,102272.13
2023-02-14T04:52:55.454Z,102274.36
2023-02-14T04:55:23.456Z,102274.16
2023-02-14T04:57:51.221Z,102276.54
2023-02-14T05:00:19.558Z,102274.46
2023-02-14T05:02:47.280Z,102270.02
2023-02-14T05:05:15.166Z,102273.67
2023-02-14T05:07:47.052Z,102275.56
2023-02-14T05:10:14.949Z,102276.46
2023-02-14T05:12:42.814Z,102279.59
2023-02-14T05:15:10.658Z,102282.02
2023-02-14T05:17:38.496Z,102281.73
2023-02-14T05:20:09.426Z,102287.83
2023-02-14T05:22:37.077Z,102291.13
2023-02-14T05:25:05.374Z,102290.41
2023-02-14T05:27:33.228Z,102291.59
2023-02-14T05:30:01.013Z,102289.34
2023-02-14T05:32:28.775Z,102288.52
2023-02-14T05:34:56.469Z,102287.65
2023-02-14T05:37:24.205Z,102295.08
2023-02-14T05:39:51.902Z,102302.52
2023-02-14T05:42:19.811Z,102305.33
2023-02-14T05:44:48.267Z,102301.91
2023-02-14T05:47:16.008Z,102301.76
2023-02-14T05:49:43.685Z,102304.33
2023-02-14T05:52:11.434Z,102304.70
2023-02-14T05:54:39.047Z,102300.23
2023-02-14T05:57:06.981Z,102300.41
2023-02-14T05:59:34.712Z,102309.21
2023-02-14T06:02:02.629Z,102312.15
2023-02-14T06:04:30.546Z,102312.16
2023-02-14T06:06:58.577Z,102312.81
2023-02-14T06:09:26.667Z,102312.11
2023-02-14T06:11:55.322Z,102318.16
2023-02-14T06:14:23.316Z,102325.63
2023-02-14T06:16:51.463Z,102327.70
2023-02-14T06:19:19.128Z,102324.23
2023-02-14T06:21:47.176Z,102328.55
2023-02-14T06:24:14.814Z,102322.33
2023-02-14T06:26:42.528Z,102326.81
2023-02-14T06:29:10.708Z,102327.12
2023-02-14T06:31:38.508Z,102327.96
2023-02-14T06:34:06.622Z,102334.86
2023-02-14T06:36:34.892Z,102336.94
2023-02-14T06:39:03.835Z,102343.86
2023-02-14T06:41:31.670Z,102346.11
2023-02-14T06:43:59.671Z,102345.61
2023-02-14T06:46:27.536Z,102347.02
2023-02-14T06:48:55.277Z,102349.09
2023-02-14T06:51:23.205Z,102347.73
2023-02-14T06:53:51.025Z,102356.23
2023-02-14T06:56:18.790Z,102360.59
2023-02-14T06:58:46.692Z,102358.75
2023-02-14T07:01:14.655Z,102358.45
2023-02-14T07:03:42.645Z,102356.29
2023-02-14T07:06:10.395Z,102358.11
2023-02-14T07:08:38.073Z,102356.30
2023-02-14T07:11:05.746Z,102354.14
2023-02-14T07:13:33.497Z,102354.20
2023-02-14T07:16:01.216Z,102354.95
2023-02-14T07:18:28.928Z,102355.71
2023-02-14T07:20:56.724Z,102353.91
2023-02-14T07:23:24.442Z,102353.45
2023-02-14T07:25:52.124Z,102358.34
2023-02-14T07:28:19.835Z,102358.09
2023-02-14T07:30:48.151Z,102356.46
2023-02-14T07:33:16.326Z,102359.24
2023-02-14T07:35:44.184Z,102363.94
2023-02-14T07:38:11.837Z,102366.11
2023-02-14T07:40:40.409Z,102364.63
2023-02-14T07:43:08.224Z,102362.42
2023-02-14T07:45:35.968Z,102366.45
2023-02-14T07:48:04.126Z,102371.70
2023-02-14T07:50:31.827Z,102375.54
2023-02-14T07:52:59.423Z,102379.04
2023-02-14T07:55:27.260Z,102377.51
2023-02-14T07:57:54.939Z,102376.19
2023-02-14T08:00:22.984Z,102372.46
2023-02-14T08:02:50.733Z,102372.87
2023-02-14T08:05:18.928Z,102380.37
2023-02-14T08:07:46.781Z,102381.80
2023-02-14T08:10:14.646Z,102381.65
2023-02-14T08:13:00.856Z,102377.55
2023-02-14T08:15:56.188Z,102382.45
2023-02-14T08:18:23.993Z,102378.83
2023-02-14T08:20:51.679Z,102370.55
2023-02-14T08:23:21.026Z,102372.69
2023-02-14T08:25:50.966Z,102375.71
2023-02-14T08:28:21.126Z,102372.33
2023-02-14T08:30:49.609Z,102371.86
2023-02-14T08:33:18.104Z,102372.27
2023-02-14T08:35:45.979Z,102375.27
2023-02-14T08:38:13.920Z,102373.27
2023-02-14T08:40:42.290Z,102379.76
2023-02-14T08:43:10.822Z,102390.88
2023-02-14T08:45:40.080Z,102390.89
2023-02-14T08:48:11.341Z,102386.88
2023-02-14T08:50:40.208Z,102385.84
2023-02-14T08:53:10.775Z,102389.46
2023-02-14T08:55:39.909Z,102389.30
2023-02-14T08:58:07.685Z,102389.55
2023-02-14T09:00:35.597Z,102392.23
2023-02-14T09:03:03.829Z,102391.23
2023-02-14T09:05:33.418Z,102394.54
2023-02-14T09:08:02.799Z,102400.23
2023-02-14T09:10:30.941Z,102407.50
2023-02-14T09:12:58.646Z,102403.15
2023-02-14T09:15:26.377Z,102402.14
2023-02-14T09:17:54.098Z,102402.82
2023-02-14T09:20:22.054Z,102408.00
2023-02-14T09:22:50.078Z,102414.74
2023-02-14T09:25:17.769Z,102406.96
2023-02-14T09:27:45.504Z,102408.88
2023-02-14T09:30:14.479Z,102414.09
2023-02-14T09:32:42.284Z,102417.22
2023-02-14T09:35:28.693Z,102416.00
2023-02-14T09:38:15.363Z,102409.38
2023-02-14T09:40:43.872Z,102406.08
2023-02-14T09:43:33.367Z,102407.81
2023-02-14T09:46:02.857Z,102407.65
2023-02-14T09:48:43.152Z,102404.91
2023-02-14T09:51:22.785Z,102406.34
2023-02-14T09:54:13.705Z,102409.84
2023-02-14T09:57:06.573Z,102405.08
2023-02-14T10:00:25.697Z,102396.54
2023-02-14T10:03:07.839Z,102401.27
2023-02-14T10:05:47.043Z,102413.77
2023-02-14T10:08:31.152Z,102409.35
2023-02-14T10:11:10.284Z,102410.94
2023-02-14T10:13:48.544Z,102410.66
2023-02-14T10:16:33.087Z,102409.51
2023-02-14T10:19:39.593Z,102399.31
2023-02-14T10:22:20.925Z,102396.68
2023-02-14T10:25:08.441Z,102397.45
2023-02-14T10:27:41.648Z,102396.70
2023-02-14T10:30:20.985Z,102389.52
2023-02-14T10:33:27.991Z,102388.36
2023-02-14T10:36:04.742Z,102386.35
2023-02-14T10:38:47.272Z,102381.01
2023-02-14T10:41:39.495Z,102375.85
2023-02-14T10:44:51.983Z,102379.69
2023-02-14T10:47:26.182Z,102379.33
2023-02-14T10:50:20.879Z,102378.28
2023-02-14T10:53:03.354Z,102381.30
2023-02-14T10:55:56.353Z,102382.25
2023-02-14T10:58:34.165Z,102382.45
2023-02-14T11:01:12.887Z,102381.09
2023-02-14T11:04:03.101Z,102378.52
2023-02-14T11:06:30.946Z,102377.10
2023-02-14T11:08:58.993Z,102373.45
2023-02-14T11:11:31.432Z,102375.70
2023-02-14T11:13:59.181Z,102380.73
2023-02-14T11:16:33.395Z,102380.92
2023-02-14T11:19:37.230Z,102373.93
2023-02-14T11:22:05.865Z,102370.59
2023-02-14T11:24:41.741Z,102371.51
2023-02-14T11:32:54.560Z,102363.84
2023-02-14T11:35:33.639Z,102364.05
2023-02-14T11:38:05.778Z,102365.78
2023-02-14T11:40:38.374Z,102366.13
2023-02-14T11:43:37.473Z,102367.20
2023-02-14T11:46:24.305Z,102363.36
2023-02-14T11:49:06.164Z,102361.95
2023-02-14T11:51:44.697Z,102365.41
2023-02-14T11:54:31.645Z,102366.09
2023-02-14T11:57:27.153Z,102359.83
2023-02-14T11:59:57.650Z,102358.09
2023-02-14T12:02:44.342Z,102359.13
2023-02-14T12:05:21.176Z,102356.45
2023-02-14T12:08:07.782Z,102353.52
2023-02-14T12:10:38.077Z,102355.62
2023-02-14T12:13:08.910Z,102354.27
2023-02-14T12:15:52.021Z,102349.96
2023-02-14T12:18:40.539Z,102345.48
2023-02-14T12:21:47.723Z,102344.83
2023-02-14T12:25:07.035Z,102345.00
2023-02-14T12:27:49.938Z,102342.09
2023-02-14T12:30:24.865Z,102329.23
2023-02-14T12:32:56.778Z,102334.92
2023-02-14T12:35:46.778Z,102333.36
2023-02-14T12:38:32.605Z,102325.39
2023-02-14T12:42:02.316Z,102322.10
2023-02-14T12:45:05.939Z,102326.41
2023-02-14T12:47:47.297Z,102322.11
2023-02-14T12:51:02.993Z,102317.81
2023-02-14T12:54:04.816Z,102317.60
2023-02-14T12:57:10.315Z,102324.69
2023-02-14T13:00:09.245Z,102320.00
2023-02-14T13:02:55.336Z,102316.35
2023-02-14T13:06:10.977Z,102314.25
2023-02-14T13:09:00.763Z,102318.06
2023-02-14T13:11:50.053Z,102316.34
2023-02-14T13:14:30.245Z,102310.11
2023-02-14T13:17:36.718Z,102310.63
2023-02-14T13:20:19.267Z,102313.02
2023-02-14T13:22:48.722Z,102310.90
2023-02-14T13:25:34.309Z,102311.27
2023-02-14T13:28:12.377Z,102315.78
2023-02-14T13:30:42.517Z,102313.34
2023-02-14T13:33:34.927Z,102309.72
2023-02-14T13:36:10.406Z,102309.02
2023-02-14T13:38:52.726Z,102308.55
2023-02-14T13:41:21.944Z,102306.64
2023-02-14T13:43:59.589Z,102304.52
2023-02-14T13:46:33.650Z,102303.98
2023-02-14T13:49:29.086Z,102305.51
2023-02-14T13:52:05.775Z,102310.55
2023-02-14T13:54:49.616Z,102310.77
2023-02-14T13:57:40.618Z,102309.17
2023-02-14T14:00:17.287Z,102307.20
2023-02-14T14:02:46.538Z,102304.93
2023-02-14T14:05:30.217Z,102302.66
2023-02-14T14:08:19.884Z,102304.04
2023-02-14T14:10:54.785Z,102302.46
2023-02-14T14:13:41.601Z,102305.77
2023-02-14T14:16:30.215Z,102301.09
2023-02-14T14:19:16.656Z,102295.54
2023-02-14T14:22:01.350Z,102293.98
2023-02-14T14:24:32.320Z,102295.90
2023-02-14T14:27:21.150Z,102297.46
2023-02-14T14:29:55.860Z,102296.05
2023-02-14T14:32:37.191Z,102293.27
2023-02-14T14:35:10.534Z,102293.27
2023-02-14T14:37:54.360Z,102292.36
2023-02-14T14:40:31.448Z,102290.09
2023-02-14T14:43:34.436Z,102290.77
2023-02-14T14:46:04.302Z,102287.45
2023-02-14T14:48:39.608Z,102288.30
2023-02-14T14:51:16.552Z,102291.94
2023-02-14T14:53:59.886Z,102289.52
2023-02-14T14:56:46.465Z,102285.52
2023-02-14T14:59:34.786Z,102285.30
2023-02-14T15:02:21.063Z,102287.18
2023-02-14T15:04:49.141Z,102286.27
2023-02-14T15:07:33.332Z,102283.48
2023-02-14T15:10:01.485Z,102284.84
2023-02-14T15:12:48.365Z,102285.86
2023-02-14T15:15:18.468Z,102287.70
2023-02-14T15:17:48.057Z,102285.42
2023-02-14T15:20:23.104Z,102284.96
2023-02-14T15:22:53.057Z,102284.44
2023-02-14T15:25:35.374Z,102285.98
2023-02-14T15:28:03.364Z,102290.11
2023-02-14T15:30:37.341Z,102286.64
2023-02-14T15:33:07.177Z,102285.23
2023-02-14T15:35:41.578Z,102285.19
2023-02-14T15:38:11.873Z,102286.88
2023-02-14T15:40:44.457Z,102288.77
2023-02-14T15:43:31.920Z,102285.45
2023-02-14T15:46:24.410Z,102285.92
2023-02-14T15:48:53.110Z,102285.91
2023-02-14T15:51:31.127Z,102278.90
2023-02-14T15:53:59.989Z,102279.05
2023-02-14T15:56:45.420Z,102274.90
2023-02-14T15:59:25.591Z,102277.53
2023-02-14T16:02:00.445Z,102279.60
2023-02-14T16:04:34.309Z,102276.62
2023-02-14T16:07:15.935Z,102280.59
2023-02-14T16:09:44.006Z,102281.43
2023-02-14T16:12:32.457Z,102277.46
2023-02-14T16:15:23.984Z,102279.02
2023-02-14T16:17:52.189Z,102282.30
2023-02-14T16:20:48.668Z,102282.45
2023-02-14T16:23:23.990Z,102284.34
2023-02-14T16:25:53.030Z,102288.33
2023-02-14T16:28:20.975Z,102290.25
2023-02-14T16:30:58.335Z,102290.25
2023-02-14T16:33:31.877Z,102292.27
2023-02-14T16:36:25.681Z,102293.45
2023-02-14T16:38:55.014Z,102292.88
2023-02-14T16:41:26.692Z,102296.66
2023-02-14T16:43:55.870Z,102296.98
2023-02-14T16:46:35.549Z,102298.51
2023-02-14T16:49:03.775Z,102300.60
2023-02-14T16:51:35.449Z,102300.77
2023-02-14T16:54:10.967Z,102306.83
2023-02-14T16:57:04.398Z,102310.45
2023-02-14T16:59:32.125Z,102311.82
2023-02-14T17:02:00.629Z,102307.34
2023-02-14T17:04:28.729Z,102308.22
2023-02-14T17:06:57.560Z,102306.80
2023-02-14T17:09:32.259Z,102305.58
2023-02-14T17:12:11.546Z,102305.37
2023-02-14T17:14:42.595Z,102303.26
2023-02-14T17:17:11.591Z,102305.99
2023-02-14T17:19:39.568Z,102310.81
2023-02-14T17:22:08.102Z,102312.02
2023-02-14T17:24:35.912Z,102313.73
2023-02-14T17:27:04.286Z,102315.09
2023-02-14T17:29:33.272Z,102316.81
2023-02-14T17:32:01.648Z,102314.24
2023-02-14T17:34:33.639Z,102313.73
2023-02-14T17:37:02.378Z,102309.75
2023-02-14T17:39:30.380Z,102311.45
2023-02-14T17:42:00.808Z,102312.42
2023-02-14T17:44:35.309Z,102313.73
2023-02-14T17:47:04.746Z,102314.02
2023-02-14T17:49:33.030Z,102315.18
2023-02-14T17:52:04.169Z,102315.96
2023-02-14T17:54:37.604Z,102310.52
2023-02-14T17:57:05.643Z,102313.23
2023-02-14T17:59:34.896Z,102315.95
2023-02-14T18:02:03.260Z,102315.42
2023-02-14T18:04:34.549Z,102313.36
2023-02-14T18:07:04.619Z,102311.63
2023-02-14T18:09:32.745Z,102315.19
2023-02-14T18:12:01.034Z,102314.57
2023-02-14T18:14:30.193Z,102315.34
2023-02-14T18:16:58.405Z,102315.63
2023-02-14T18:19:26.436Z,102316.45
2023-02-14T18:21:54.408Z,102315.05
2023-02-14T18:24:24.819Z,102316.06
2023-02-14T18:26:53.019Z,102315.70
2023-02-14T18:29:22.101Z,102311.16
2023-02-14T18:31:50.156Z,102310.28
2023-02-14T18:34:23.658Z,102306.13
2023-02-14T18:36:52.304Z,102310.21
2023-02-14T18:39:20.370Z,102308.07
2023-02-14T18:41:48.534Z,102304.70
2023-02-14T18:44:20.982Z,102307.38
2023-02-14T18:46:50.676Z,102310.23
2023-02-14T18:49:18.798Z,102311.05
2023-02-14T18:51:48.363Z,102309.63
2023-02-14T18:54:16.241Z,102306.83
2023-02-14T18:56:44.134Z,102306.64
2023-02-14T18:59:12.925Z,102305.39
2023-02-14T19:01:45.079Z,102297.92
2023-02-14T19:04:15.850Z,102300.83
2023-02-14T19:06:44.653Z,102302.19
2023-02-14T19:09:18.093Z,102297.14
2023-02-14T19:11:46.255Z,102296.27
2023-02-14T19:14:14.043Z,102291.27
2023-02-14T19:16:50.043Z,102290.73
2023-02-14T19:19:18.360Z,102288.98
2023-02-14T19:21:46.142Z,102287.77
2023-02-14T19:24:16.913Z,102285.48
2023-02-14T19:26:45.751Z,102285.43
2023-02-14T19:29:17.606Z,102283.31
2023-02-14T19:31:49.657Z,102286.02
2023-02-14T19:34:20.620Z,102289.95
2023-02-14T19:36:51.404Z,102286.64
2023-02-14T19:39:24.072Z,102278.95
2023-02-14T19:41:52.379Z,102280.31
2023-02-14T19:44:20.499Z,102281.15
2023-02-14T19:46:48.630Z,102284.72
2023-02-14T19:49:20.048Z,102285.34
2023-02-14T19:51:50.689Z,102280.98
2023-02-14T19:54:18.661Z,102282.14
2023-02-14T19:56:50.441Z,102284.53
2023-02-14T19:59:21.118Z,102284.52
2023-02-14T20:01:53.628Z,102284.15
2023-02-14T20:04:26.074Z,102285.69
2023-02-14T20:06:55.692Z,102284.80
2023-02-14T20:09:25.284Z,102283.89
2023-02-14T20:11:56.708Z,102288.70
2023-02-14T20:14:28.830Z,102290.02
2023-02-14T20:16:59.510Z,102288.91
2023-02-14T20:19:37.684Z,102287.08
2023-02-14T20:22:07.551Z,102286.27
2023-02-14T20:24:35.506Z,102288.08
2023-02-14T20:27:03.501Z,102283.84
2023-02-14T20:29:31.766Z,102280.60
2023-02-14T20:32:03.215Z,102284.27
2023-02-14T20:34:31.131Z,102284.02
2023-02-14T20:36:59.789Z,102282.04
2023-02-14T20:39:31.883Z,102283.37
2023-02-14T20:42:00.580Z,102278.30
2023-02-14T20:44:28.871Z,102277.67
2023-02-14T20:46:57.988Z,102276.33
2023-02-14T20:49:29.296Z,102274.83
2023-02-14T20:51:57.944Z,102270.09
2023-02-14T20:54:28.103Z,102265.88
2023-02-14T20:56:57.363Z,102264.06
2023-02-14T20:59:28.115Z,102263.27
2023-02-14T21:01:58.380Z,102262.14
2023-02-14T21:04:27.612Z,102263.08
2023-02-14T21:06:57.192Z,102267.39
2023-02-14T21:09:25.430Z,102267.89
2023-02-14T21:11:53.796Z,102267.88
2023-02-14T21:14:21.699Z,102269.09
2023-02-14T21:16:49.663Z,102270.67
2023-02-14T21:19:17.494Z,102269.65
2023-02-14T21:21:47.408Z,102269.02
2023-02-14T21:24:16.242Z,102265.33
2023-02-14T21:26:44.586Z,102267.64
2023-02-14T21:29:12.374Z,102268.04
2023-02-14T21:31:41.754Z,102270.20
2023-02-14T21:34:10.248Z,102271.65
2023-02-14T21:36:38.037Z,102270.23
2023-02-14T21:39:07.401Z,102265.54
2023-02-14T21:41:36.800Z,102265.34
2023-02-14T21:44:06.364Z,102265.84
2023-02-14T21:46:40.490Z,102261.69
2023-02-14T21:49:30.697Z,102258.17
2023-02-14T21:51:58.745Z,102257.14
2023-02-14T21:54:26.710Z,102254.00
2023-02-14T21:56:54.440Z,102255.50
2023-02-14T21:59:22.229Z,102255.27
2023-02-14T22:01:49.977Z,102254.77
2023-02-14T22:04:17.805Z,102251.08
2023-02-14T22:06:46.034Z,102249.69
2023-02-14T22:09:14.194Z,102248.27
2023-02-14T22:11:42.462Z,102247.27
2023-02-14T22:14:10.335Z,102250.54
2023-02-14T22:16:38.366Z,102248.62
2023-02-14T22:19:07.696Z,102246.89
2023-02-14T22:21:35.664Z,102246.80
2023-02-14T22:24:03.916Z,102247.75
2023-02-14T22:26:38.102Z,102248.10
2023-02-14T22:29:08.721Z,102249.45
2023-02-14T22:31:43.806Z,102244.95
2023-02-14T22:34:17.295Z,102240.86
2023-02-14T22:36:46.223Z,102236.15
2023-02-14T22:39:16.171Z,102235.73
2023-02-14T22:41:44.144Z,102234.79
2023-02-14T22:44:12.868Z,102230.59
2023-02-14T22:46:41.446Z,102227.40
2023-02-14T22:49:09.160Z,102224.71
2023-02-14T22:51:40.371Z,102224.31
2023-02-14T22:54:13.620Z,102219.10
2023-02-14T22:56:47.810Z,102217.80
2023-02-14T22:59:24.861Z,102218.26
2023-02-14T23:01:53.997Z,102212.30
2023-02-14T23:04:24.450Z,102209.40
2023-02-14T23:06:53.417Z,102210.17
2023-02-14T23:09:23.424Z,102210.65
2023-02-14T23:11:51.515Z,102207.58
2023-02-14T23:14:44.086Z,102204.77
2023-02-14T23:17:23.805Z,102200.96
2023-02-14T23:20:09.711Z,102198.27
2023-02-14T23:22:40.489Z,102194.61
2023-02-14T23:25:11.591Z,102196.10
2023-02-14T23:27:43.791Z,102196.75
2023-02-14T23:30:15.438Z,102195.45
2023-02-14T23:32:43.665Z,102196.17
2023-02-14T23:35:11.563Z,102194.62
2023-02-14T23:37:39.407Z,102192.66
2023-02-14T23:40:09.237Z,102187.95
2023-02-14T23:42:36.955Z,102189.73
2023-02-14T23:45:24.269Z,102189.85
2023-02-14T23:47:52.047Z,102187.00
2023-02-14T23:50:19.824Z,102191.02
2023-02-14T23:52:47.582Z,102189.54
2023-02-14T23:55:15.475Z,102186.16
2023-02-14T23:57:43.285Z,102187.86
